createdAt,value
2022-08-02T00:00:08.140Z,22.65
2022-08-02T00:02:34.444Z,22.63
2022-08-02T00:05:00.770Z,22.62
2022-08-02T00:07:27.154Z,22.60
2022-08-02T00:09:53.614Z,22.57
2022-08-02T00:12:20.120Z,22.55
2022-08-02T00:14:46.444Z,22.53
2022-08-02T00:17:13.102Z,22.50
2022-08-02T00:19:39.443Z,22.47
2022-08-02T00:22:05.934Z,22.45
2022-08-02T00:24:32.274Z,22.43
2022-08-02T00:26:58.816Z,22.42
2022-08-02T00:29:25.170Z,22.39
2022-08-02T00:31:51.680Z,22.39
2022-08-02T00:34:29.182Z,22.36
2022-08-02T00:36:57.471Z,22.34
2022-08-02T00:39:35.395Z,22.33
2022-08-02T00:42:02.687Z,22.31
2022-08-02T00:44:29.076Z,22.28
2022-08-02T00:46:55.433Z,22.26
2022-08-02T00:49:21.999Z,22.24
2022-08-02T00:51:48.454Z,22.23
2022-08-02T00:54:14.907Z,22.23
2022-08-02T00:56:49.484Z,22.21
2022-08-02T00:59:17.727Z,22.20
2022-08-02T01:01:56.176Z,22.19
2022-08-02T01:04:29.767Z,22.17
2022-08-02T01:06:57.285Z,22.14
2022-08-02T01:09:23.861Z,22.12
2022-08-02T01:11:50.269Z,22.10
2022-08-02T01:14:16.782Z,22.07
2022-08-02T01:16:44.320Z,22.06
2022-08-02T01:19:15.954Z,22.03
2022-08-02T01:21:42.633Z,22.00
2022-08-02T01:24:09.365Z,21.98
2022-08-02T01:26:35.964Z,21.97
2022-08-02T01:29:02.475Z,21.94
2022-08-02T01:31:28.779Z,21.93
2022-08-02T01:33:55.100Z,21.92
2022-08-02T01:36:21.481Z,21.89
2022-08-02T01:38:47.751Z,21.89
2022-08-02T01:41:14.105Z,21.87
2022-08-02T01:43:40.453Z,21.85
2022-08-02T01:46:06.781Z,21.82
2022-08-02T01:48:33.196Z,21.82
2022-08-02T01:50:59.626Z,21.79
2022-08-02T01:53:25.926Z,21.77
2022-08-02T01:55:57.917Z,21.76
2022-08-02T01:58:25.240Z,21.73
2022-08-02T02:00:51.765Z,21.73
2022-08-02T02:03:18.146Z,21.71
2022-08-02T02:05:44.583Z,21.69
2022-08-02T02:08:10.997Z,21.67
2022-08-02T02:10:37.384Z,21.66
2022-08-02T02:13:03.739Z,21.64
2022-08-02T02:15:30.047Z,21.62
2022-08-02T02:18:13.210Z,21.61
2022-08-02T02:20:39.994Z,21.59
2022-08-02T02:23:06.262Z,21.59
2022-08-02T02:25:35.763Z,21.56
2022-08-02T02:28:02.902Z,21.55
2022-08-02T02:30:29.220Z,21.52
2022-08-02T02:32:55.527Z,21.50
2022-08-02T02:35:21.890Z,21.48
2022-08-02T02:37:48.228Z,21.46
2022-08-02T02:40:14.678Z,21.46
2022-08-02T02:42:41.272Z,21.44
2022-08-02T02:45:08.072Z,21.42
2022-08-02T02:47:40.283Z,21.40
2022-08-02T02:50:08.103Z,21.39
2022-08-02T02:52:34.399Z,21.38
2022-08-02T02:55:01.423Z,21.35
2022-08-02T02:57:27.869Z,21.34
2022-08-02T02:59:54.454Z,21.33
2022-08-02T03:02:21.158Z,21.33
2022-08-02T03:04:56.453Z,21.31
2022-08-02T03:07:23.957Z,21.27
2022-08-02T03:09:54.289Z,21.25
2022-08-02T03:12:21.266Z,21.22
2022-08-02T03:14:49.438Z,21.21
2022-08-02T03:17:17.457Z,21.19
2022-08-02T03:19:43.802Z,21.17
2022-08-02T03:22:10.656Z,21.18
2022-08-02T03:24:37.065Z,21.16
2022-08-02T03:27:03.525Z,21.14
2022-08-02T03:29:34.330Z,21.11
2022-08-02T03:32:01.073Z,21.11
2022-08-02T03:34:27.358Z,21.09
2022-08-02T03:36:53.823Z,21.07
2022-08-02T03:39:20.256Z,21.06
2022-08-02T03:41:46.792Z,21.05
2022-08-02T03:44:13.137Z,21.04
2022-08-02T03:46:39.486Z,21.03
2022-08-02T03:49:05.960Z,21.02
2022-08-02T03:51:32.317Z,21.01
2022-08-02T03:53:58.781Z,21.00
2022-08-02T03:56:25.098Z,20.99
2022-08-02T03:58:51.444Z,20.98
2022-08-02T04:01:17.867Z,20.97
2022-08-02T04:03:44.312Z,20.98
2022-08-02T04:06:11.151Z,20.98
2022-08-02T04:08:38.712Z,20.98
2022-08-02T04:11:05.394Z,20.97
2022-08-02T04:13:35.667Z,20.98
2022-08-02T04:16:02.543Z,20.98
2022-08-02T04:18:28.897Z,20.99
2022-08-02T04:20:55.217Z,20.99
2022-08-02T04:23:21.782Z,21.03
2022-08-02T04:25:48.194Z,21.05
2022-08-02T04:28:18.536Z,21.05
2022-08-02T04:30:44.993Z,21.05
2022-08-02T04:33:11.272Z,21.07
2022-08-02T04:35:37.892Z,21.08
2022-08-02T04:38:08.816Z,21.06
2022-08-02T04:40:36.371Z,21.05
2022-08-02T04:43:03.104Z,21.05
2022-08-02T04:45:29.603Z,21.07
2022-08-02T04:48:04.441Z,21.13
2022-08-02T04:50:31.954Z,21.17
2022-08-02T04:52:58.284Z,21.15
2022-08-02T04:55:24.584Z,21.17
2022-08-02T04:57:53.087Z,21.29
2022-08-02T05:00:19.674Z,21.51
2022-08-02T05:02:48.518Z,21.56
2022-08-02T05:05:17.013Z,21.70
2022-08-02T05:07:43.336Z,21.88
2022-08-02T05:10:09.823Z,22.04
2022-08-02T05:12:36.205Z,22.16
2022-08-02T05:15:02.543Z,22.27
2022-08-02T05:17:28.858Z,22.40
2022-08-02T05:19:55.315Z,22.52
2022-08-02T05:22:21.773Z,22.63
2022-08-02T05:24:49.252Z,22.71
2022-08-02T05:27:16.573Z,22.89
2022-08-02T05:29:52.989Z,23.04
2022-08-02T05:32:20.546Z,23.05
2022-08-02T05:34:50.538Z,22.95
2022-08-02T05:37:16.852Z,22.99
2022-08-02T05:39:55.928Z,23.13
2022-08-02T05:42:22.731Z,23.25
2022-08-02T05:44:49.209Z,23.50
2022-08-02T05:47:15.546Z,23.72
2022-08-02T05:49:41.945Z,23.76
2022-08-02T05:52:08.867Z,23.80
2022-08-02T05:54:35.502Z,23.86
2022-08-02T05:57:01.823Z,24.02
2022-08-02T05:59:28.174Z,24.06
2022-08-02T06:01:54.724Z,24.11
2022-08-02T06:04:22.109Z,24.18
2022-08-02T06:06:48.640Z,24.28
2022-08-02T06:09:15.182Z,24.48
2022-08-02T06:11:41.669Z,24.69
2022-08-02T06:14:30.491Z,24.88
2022-08-02T06:16:57.107Z,25.07
2022-08-02T06:19:23.845Z,25.24
2022-08-02T06:22:42.028Z,25.25
2022-08-02T06:24:36.997Z,25.33
2022-08-02T06:27:03.620Z,25.40
2022-08-02T06:29:29.931Z,25.49
2022-08-02T06:31:56.507Z,25.47
2022-08-02T06:34:23.592Z,25.58
2022-08-02T06:36:50.001Z,25.74
2022-08-02T06:39:17.270Z,25.88
2022-08-02T06:41:43.684Z,26.00
2022-08-02T06:44:44.752Z,26.11
2022-08-02T06:47:11.065Z,26.24
2022-08-02T06:49:52.265Z,26.38
2022-08-02T06:52:23.230Z,26.51
2022-08-02T06:54:53.434Z,26.64
2022-08-02T06:57:19.963Z,26.79
2022-08-02T06:59:46.323Z,26.94
2022-08-02T07:02:13.083Z,27.04
2022-08-02T07:04:39.930Z,27.18
2022-08-02T07:07:06.609Z,27.33
2022-08-02T07:09:33.366Z,27.47
2022-08-02T07:11:59.753Z,27.60
2022-08-02T07:14:26.072Z,27.74
2022-08-02T07:16:52.612Z,27.87
2022-08-02T07:19:18.957Z,28.01
2022-08-02T07:21:56.762Z,28.13
2022-08-02T07:24:26.794Z,28.29
2022-08-02T07:27:10.766Z,28.37
2022-08-02T07:29:44.772Z,28.25
2022-08-02T07:32:12.297Z,28.28
2022-08-02T07:34:38.818Z,28.21
2022-08-02T07:37:09.080Z,28.31
2022-08-02T07:39:45.042Z,28.26
2022-08-02T07:42:11.901Z,28.30
2022-08-02T07:44:38.534Z,28.64
2022-08-02T07:47:05.019Z,28.89
2022-08-02T07:49:31.832Z,29.08
2022-08-02T07:51:58.301Z,29.21
2022-08-02T07:54:24.748Z,29.29
2022-08-02T07:56:58.177Z,29.50
2022-08-02T07:59:25.687Z,29.71
2022-08-02T08:01:52.112Z,29.90
2022-08-02T08:04:18.565Z,30.11
2022-08-02T08:06:44.892Z,30.35
2022-08-02T08:09:11.354Z,30.58
2022-08-02T08:11:37.659Z,30.74
2022-08-02T08:14:04.025Z,30.96
2022-08-02T08:16:30.412Z,31.12
2022-08-02T08:18:56.882Z,30.82
2022-08-02T08:21:23.595Z,31.20
2022-08-02T08:23:49.912Z,31.42
2022-08-02T08:26:16.282Z,31.55
2022-08-02T08:28:42.797Z,31.68
2022-08-02T08:31:09.285Z,31.76
2022-08-02T08:33:35.704Z,31.97
2022-08-02T08:36:02.774Z,32.16
2022-08-02T08:38:29.180Z,32.18
2022-08-02T08:40:55.530Z,32.30
2022-08-02T08:43:21.909Z,32.12
2022-08-02T08:45:56.139Z,32.45
2022-08-02T08:48:30.393Z,32.29
2022-08-02T08:50:58.178Z,31.99
2022-08-02T08:53:36.845Z,32.31
2022-08-02T08:56:03.407Z,32.35
2022-08-02T08:58:29.865Z,31.68
2022-08-02T09:00:56.552Z,31.71
2022-08-02T09:03:22.966Z,31.81
2022-08-02T09:05:50.005Z,31.27
2022-08-02T09:08:17.196Z,30.44
2022-08-02T09:10:43.722Z,29.83
2022-08-02T09:13:37.559Z,29.54
2022-08-02T09:15:56.909Z,29.36
2022-08-02T09:18:23.393Z,29.23
2022-08-02T09:20:49.854Z,29.13
2022-08-02T09:23:16.302Z,29.03
2022-08-02T09:25:42.967Z,28.97
2022-08-02T09:28:25.629Z,28.91
2022-08-02T09:30:52.173Z,28.87
2022-08-02T09:33:18.705Z,28.82
2022-08-02T09:36:06.160Z,28.80
2022-08-02T09:38:31.416Z,28.81
2022-08-02T09:40:57.799Z,28.79
2022-08-02T09:43:24.570Z,28.78
2022-08-02T09:45:50.967Z,28.74
2022-08-02T09:48:17.660Z,28.72
2022-08-02T09:50:44.373Z,28.67
2022-08-02T09:53:10.898Z,28.62
2022-08-02T09:55:37.382Z,28.56
2022-08-02T09:58:03.686Z,28.51
2022-08-02T10:00:50.721Z,28.47
2022-08-02T10:03:22.402Z,28.43
2022-08-02T10:05:55.989Z,28.39
2022-08-02T10:08:23.830Z,28.35
2022-08-02T10:10:50.721Z,28.31
2022-08-02T10:13:21.942Z,28.30
2022-08-02T10:15:50.586Z,28.28
2022-08-02T10:18:37.086Z,28.25
2022-08-02T10:21:03.790Z,28.22
2022-08-02T10:23:30.231Z,28.20
2022-08-02T10:26:00.363Z,28.18
2022-08-02T10:28:27.069Z,28.16
2022-08-02T10:30:53.402Z,28.13
2022-08-02T10:33:19.726Z,28.11
2022-08-02T10:35:46.033Z,28.10
2022-08-02T10:38:12.659Z,28.10
2022-08-02T10:40:38.981Z,28.12
2022-08-02T10:43:10.940Z,28.12
2022-08-02T10:45:37.364Z,28.09
2022-08-02T10:48:03.945Z,28.07
2022-08-02T10:50:30.342Z,28.05
2022-08-02T10:52:56.767Z,28.04
2022-08-02T10:55:23.193Z,28.05
2022-08-02T10:57:50.183Z,28.05
2022-08-02T11:00:19.497Z,28.05
2022-08-02T11:02:46.049Z,28.03
2022-08-02T11:05:12.426Z,28.01
2022-08-02T11:07:39.246Z,28.00
2022-08-02T11:10:05.624Z,27.99
2022-08-02T11:12:33.323Z,27.98
2022-08-02T11:14:59.979Z,27.97
2022-08-02T11:17:26.368Z,27.97
2022-08-02T11:19:52.764Z,27.97
2022-08-02T11:22:23.751Z,27.97
2022-08-02T11:24:51.981Z,27.97
2022-08-02T11:27:18.606Z,27.98
2022-08-02T11:29:48.501Z,27.98
2022-08-02T11:32:15.477Z,27.99
2022-08-02T11:34:42.058Z,28.01
2022-08-02T11:37:08.798Z,28.00
2022-08-02T11:39:35.211Z,28.00
2022-08-02T11:42:01.916Z,28.01
2022-08-02T11:44:28.321Z,28.02
2022-08-02T11:46:54.668Z,28.01
2022-08-02T11:49:21.098Z,28.01
2022-08-02T11:51:51.140Z,28.01
2022-08-02T11:54:20.323Z,28.02
2022-08-02T11:56:47.166Z,28.00
2022-08-02T11:59:14.594Z,28.00
2022-08-02T12:01:45.626Z,28.03
2022-08-02T12:04:12.723Z,28.04
2022-08-02T12:06:39.097Z,28.06
2022-08-02T12:09:05.485Z,28.08
2022-08-02T12:11:44.208Z,28.10
2022-08-02T12:14:10.705Z,28.12
2022-08-02T12:16:37.026Z,28.13
2022-08-02T12:19:03.667Z,28.14
2022-08-02T12:21:30.112Z,28.14
2022-08-02T12:24:01.376Z,28.14
2022-08-02T12:26:28.183Z,28.15
2022-08-02T12:28:54.605Z,28.17
2022-08-02T12:31:20.958Z,28.17
2022-08-02T12:33:47.735Z,28.18
2022-08-02T12:36:14.099Z,28.19
2022-08-02T12:38:40.684Z,28.21
2022-08-02T12:41:30.335Z,28.21
2022-08-02T12:43:53.542Z,28.23
2022-08-02T12:46:20.027Z,28.23
2022-08-02T12:49:08.424Z,28.25
2022-08-02T12:51:50.979Z,28.26
2022-08-02T12:54:19.347Z,28.25
2022-08-02T12:56:49.450Z,28.24
2022-08-02T12:59:15.838Z,28.23
2022-08-02T13:01:42.254Z,28.23
2022-08-02T13:04:13.688Z,28.25
2022-08-02T13:06:45.160Z,28.23
2022-08-02T13:09:12.073Z,28.22
2022-08-02T13:11:43.183Z,28.20
2022-08-02T13:14:10.259Z,28.21
2022-08-02T13:16:36.633Z,28.21
2022-08-02T13:19:03.405Z,28.22
2022-08-02T13:21:40.947Z,28.23
2022-08-02T13:24:32.839Z,28.24
2022-08-02T13:27:04.611Z,28.27
2022-08-02T13:29:34.786Z,28.29
2022-08-02T13:32:01.291Z,28.32
2022-08-02T13:34:28.121Z,28.34
2022-08-02T13:36:54.497Z,28.36
2022-08-02T13:39:21.087Z,28.38
2022-08-02T13:41:47.605Z,28.39
2022-08-02T13:44:13.998Z,28.38
2022-08-02T13:46:45.611Z,28.36
2022-08-02T13:49:17.846Z,28.35
2022-08-02T13:51:45.095Z,28.32
2022-08-02T13:54:11.458Z,28.33
2022-08-02T13:56:37.785Z,28.35
2022-08-02T13:59:54.109Z,28.37
2022-08-02T14:01:50.936Z,28.39
2022-08-02T14:04:17.299Z,28.39
2022-08-02T14:06:44.504Z,28.41
2022-08-02T14:09:15.589Z,28.41
2022-08-02T14:11:43.621Z,28.43
2022-08-02T14:14:16.060Z,28.43
2022-08-02T14:16:43.486Z,28.45
2022-08-02T14:19:16.901Z,28.45
2022-08-02T14:21:47.295Z,28.45
2022-08-02T14:24:14.943Z,28.46
2022-08-02T14:26:41.312Z,28.45
2022-08-02T14:29:07.776Z,28.45
2022-08-02T14:31:34.174Z,28.45
2022-08-02T14:34:01.087Z,28.45
2022-08-02T14:36:28.185Z,28.45
2022-08-02T14:38:54.737Z,28.35
2022-08-02T14:41:21.360Z,28.46
2022-08-02T14:43:47.919Z,28.46
2022-08-02T14:46:14.361Z,28.47
2022-08-02T14:48:40.807Z,28.48
2022-08-02T14:51:07.126Z,28.48
2022-08-02T14:53:38.068Z,28.50
2022-08-02T14:56:15.597Z,28.49
2022-08-02T14:58:42.240Z,28.51
2022-08-02T15:01:09.055Z,28.50
2022-08-02T15:03:43.528Z,28.49
2022-08-02T15:06:10.281Z,28.49
2022-08-02T15:08:36.627Z,28.49
2022-08-02T15:11:03.057Z,28.48
2022-08-02T15:13:29.399Z,28.49
2022-08-02T15:15:55.934Z,28.48
2022-08-02T15:18:22.705Z,28.48
2022-08-02T15:20:57.234Z,28.48
2022-08-02T15:23:24.476Z,28.49
2022-08-02T15:26:01.274Z,28.48
2022-08-02T15:28:27.598Z,28.49
2022-08-02T15:30:53.930Z,28.48
2022-08-02T15:33:20.330Z,28.49
2022-08-02T15:35:46.685Z,28.47
2022-08-02T15:38:13.015Z,28.47
2022-08-02T15:40:39.595Z,28.46
2022-08-02T15:43:05.898Z,28.45
2022-08-02T15:45:33.599Z,28.44
2022-08-02T15:48:00.102Z,28.44
2022-08-02T15:50:26.853Z,28.43
2022-08-02T15:52:53.666Z,28.43
2022-08-02T15:55:20.149Z,28.42
2022-08-02T15:57:46.511Z,28.42
2022-08-02T16:00:17.891Z,28.41
2022-08-02T16:02:45.363Z,28.41
2022-08-02T16:05:14.435Z,28.40
2022-08-02T16:07:41.322Z,28.38
2022-08-02T16:10:08.920Z,28.38
2022-08-02T16:12:35.739Z,28.37
2022-08-02T16:15:02.393Z,28.36
2022-08-02T16:17:51.715Z,28.34
2022-08-02T16:20:15.502Z,28.34
2022-08-02T16:22:41.912Z,28.33
2022-08-02T16:25:08.691Z,28.33
2022-08-02T16:27:57.488Z,28.31
2022-08-02T16:30:22.616Z,28.30
2022-08-02T16:32:49.081Z,28.30
2022-08-02T16:35:15.718Z,28.30
2022-08-02T16:37:51.692Z,28.29
2022-08-02T16:40:19.553Z,28.26
2022-08-02T16:42:48.780Z,28.25
2022-08-02T16:45:20.664Z,28.25
2022-08-02T16:47:56.519Z,28.25
2022-08-02T16:50:28.093Z,28.23
2022-08-02T16:52:55.176Z,28.22
2022-08-02T16:55:25.274Z,28.20
2022-08-02T16:57:52.134Z,28.20
2022-08-02T17:00:23.334Z,28.18
2022-08-02T17:02:49.706Z,28.17
2022-08-02T17:05:16.141Z,28.16
2022-08-02T17:08:08.431Z,28.15
2022-08-02T17:10:28.787Z,28.14
2022-08-02T17:12:57.110Z,28.12
2022-08-02T17:16:07.677Z,28.11
2022-08-02T17:18:09.960Z,28.09
2022-08-02T17:20:36.326Z,28.08
2022-08-02T17:23:04.268Z,28.08
2022-08-02T17:25:31.978Z,28.07
2022-08-02T17:27:58.895Z,28.05
2022-08-02T17:30:27.022Z,28.04
2022-08-02T17:32:54.258Z,28.02
2022-08-02T17:35:24.703Z,28.01
2022-08-02T17:37:54.860Z,27.99
2022-08-02T17:40:36.929Z,27.99
2022-08-02T17:43:03.567Z,27.97
2022-08-02T17:45:59.795Z,27.96
2022-08-02T17:48:36.744Z,27.95
2022-08-02T17:51:04.234Z,27.94
2022-08-02T17:53:36.386Z,27.92
2022-08-02T17:56:03.068Z,27.90
2022-08-02T17:58:33.103Z,27.88
2022-08-02T18:00:59.956Z,27.87
2022-08-02T18:03:26.521Z,27.86
2022-08-02T18:05:55.198Z,27.83
2022-08-02T18:08:23.019Z,27.83
2022-08-02T18:10:49.858Z,27.81
2022-08-02T18:13:16.413Z,27.79
2022-08-02T18:15:45.605Z,27.77
2022-08-02T18:18:12.218Z,27.76
2022-08-02T18:20:38.527Z,27.74
2022-08-02T18:23:11.004Z,27.70
2022-08-02T18:25:45.754Z,27.63
2022-08-02T18:28:14.270Z,27.57
2022-08-02T18:30:40.807Z,27.51
2022-08-02T18:33:57.910Z,27.45
2022-08-02T18:35:55.377Z,27.40
2022-08-02T18:38:22.183Z,27.35
2022-08-02T18:40:50.611Z,27.32
2022-08-02T18:43:17.624Z,27.28
2022-08-02T18:46:07.134Z,27.23
2022-08-02T18:48:30.719Z,27.18
2022-08-02T18:50:57.467Z,27.13
2022-08-02T18:53:39.021Z,27.09
2022-08-02T18:56:08.597Z,27.03
2022-08-02T18:58:34.905Z,26.99
2022-08-02T19:01:05.092Z,26.95
2022-08-02T19:03:41.828Z,26.90
2022-08-02T19:06:15.694Z,26.88
2022-08-02T19:08:46.337Z,26.82
2022-08-02T19:11:35.181Z,26.79
2022-08-02T19:14:02.610Z,26.77
2022-08-02T19:16:37.010Z,26.74
2022-08-02T19:19:04.393Z,26.70
2022-08-02T19:22:16.549Z,26.65
2022-08-02T19:24:17.379Z,26.62
2022-08-02T19:26:51.345Z,26.58
2022-08-02T19:29:18.724Z,26.54
2022-08-02T19:32:05.077Z,26.51
2022-08-02T19:34:51.724Z,26.47
2022-08-02T19:37:19.064Z,26.42
2022-08-02T19:39:45.987Z,26.40
2022-08-02T19:42:12.660Z,26.36
2022-08-02T19:44:44.891Z,26.34
2022-08-02T19:47:12.240Z,26.32
2022-08-02T19:49:39.940Z,26.27
2022-08-02T19:52:20.636Z,26.24
2022-08-02T19:54:54.432Z,26.22
2022-08-02T19:57:23.218Z,26.17
2022-08-02T19:59:51.483Z,26.14
2022-08-02T20:02:18.509Z,26.11
2022-08-02T20:04:49.818Z,26.09
2022-08-02T20:07:24.230Z,26.06
2022-08-02T20:10:03.430Z,26.02
2022-08-02T20:12:35.234Z,25.99
2022-08-02T20:15:03.697Z,25.97
2022-08-02T20:17:34.586Z,25.94
2022-08-02T20:20:00.977Z,25.90
2022-08-02T20:22:27.285Z,25.87
2022-08-02T20:24:53.646Z,25.86
2022-08-02T20:27:21.787Z,25.82
2022-08-02T20:29:52.271Z,25.80
2022-08-02T20:32:18.710Z,25.76
2022-08-02T20:34:48.539Z,25.74
2022-08-02T20:38:01.420Z,25.72
2022-08-02T20:40:01.499Z,25.69
2022-08-02T20:42:27.944Z,25.65
2022-08-02T20:44:55.685Z,25.61
2022-08-02T20:47:27.866Z,25.58
2022-08-02T20:50:05.890Z,25.55
2022-08-02T20:52:33.943Z,25.51
2022-08-02T20:55:00.449Z,25.48
2022-08-02T21:00:13.228Z,25.38
2022-08-02T21:02:39.663Z,25.33
2022-08-02T21:07:53.465Z,25.26
2022-08-02T21:10:21.361Z,25.21
2022-08-02T21:12:50.391Z,25.19
2022-08-02T21:15:16.699Z,25.14
2022-08-02T21:17:45.419Z,25.12
2022-08-02T21:20:16.858Z,25.08
2022-08-02T21:22:43.277Z,25.07
2022-08-02T21:25:11.126Z,25.03
2022-08-02T21:27:51.687Z,25.01
2022-08-02T21:30:19.989Z,25.00
2022-08-02T21:32:50.707Z,24.98
2022-08-02T21:35:17.883Z,24.92
2022-08-02T21:37:45.187Z,24.86
2022-08-02T21:40:11.581Z,24.79
2022-08-02T21:42:40.087Z,24.71
2022-08-02T21:45:16.912Z,24.63
2022-08-02T21:47:43.937Z,24.57
2022-08-02T21:50:15.969Z,24.52
2022-08-02T21:56:00.604Z,24.42
2022-08-02T21:58:15.883Z,24.37
2022-08-02T22:00:46.867Z,24.35
2022-08-02T22:03:22.790Z,24.31
2022-08-02T22:05:50.082Z,24.28
2022-08-02T22:08:17.242Z,24.25
2022-08-02T22:10:43.656Z,24.22
2022-08-02T22:13:14.230Z,24.20
2022-08-02T22:15:41.238Z,24.15
2022-08-02T22:18:07.582Z,24.13
2022-08-02T22:20:43.806Z,24.08
2022-08-02T22:23:13.005Z,24.04
2022-08-02T22:25:49.091Z,23.98
2022-08-02T22:28:38.330Z,23.93
2022-08-02T22:31:02.640Z,23.88
2022-08-02T22:33:33.095Z,23.86
2022-08-02T22:36:00.014Z,23.82
2022-08-02T22:38:26.305Z,23.77
2022-08-02T22:40:52.883Z,23.76
2022-08-02T22:43:23.110Z,23.72
2022-08-02T22:45:49.776Z,23.69
2022-08-02T22:48:16.059Z,23.68
2022-08-02T22:50:42.949Z,23.65
2022-08-02T22:53:09.310Z,23.62
2022-08-02T22:55:36.015Z,23.60
2022-08-02T22:58:08.185Z,23.59
2022-08-02T22:58:56.591Z,25.43
2022-08-02T22:59:08.008Z,25.29
2022-08-02T23:00:34.588Z,23.56
2022-08-02T23:03:00.982Z,23.54
2022-08-02T23:05:29.274Z,23.51
2022-08-02T23:07:55.593Z,23.45
2022-08-02T23:10:21.876Z,23.43
2022-08-02T23:12:48.152Z,23.42
2022-08-02T23:15:14.952Z,23.40
2022-08-02T23:17:41.243Z,23.36
2022-08-02T23:20:07.554Z,23.36
2022-08-02T23:22:33.857Z,23.33
2022-08-02T23:25:00.189Z,23.30
2022-08-02T23:27:26.560Z,23.29
2022-08-02T23:29:52.965Z,23.26
2022-08-02T23:32:22.853Z,23.26
2022-08-02T23:34:52.108Z,23.24
2022-08-02T23:37:18.925Z,23.21
2022-08-02T23:39:46.101Z,23.19
2022-08-02T23:42:12.503Z,23.18
2022-08-02T23:44:38.838Z,23.17
2022-08-02T23:47:05.163Z,23.15
2022-08-02T23:49:32.183Z,23.13
2022-08-02T23:52:01.686Z,23.12
2022-08-02T23:54:28.875Z,23.10
2022-08-02T23:56:57.204Z,23.08
2022-08-02T23:59:23.993Z,23.07
